Time;durP1;ratioP1;P1;durP2;ratioP2;P2;SDS_P1;SDS_P2;PMS_P1;PMS_P2;Temp;Humidity;BMP_temperature;BMP_pressure;BME280_temperature;BME280_humidity;BME280_pressure;Samples;Min_cycle;Max_cycle;Signal;HPM_P1;HPM_P2
2021/08/14 00:00:48;;;;;;;10.30;6.20;;;;;;;15.08;80.77;99546.84;5033629;28;20054;-62
2021/08/14 00:03:14;;;;;;;9.80;7.25;;;;;;;15.07;80.88;99547.94;5032300;28;20466;-61
2021/08/14 00:05:40;;;;;;;9.93;6.80;;;;;;;15.05;80.92;99546.59;5033759;28;20045;-61
2021/08/14 00:08:05;;;;;;;8.93;6.55;;;;;;;15.04;80.94;99550.34;5033122;28;20049;-60
2021/08/14 00:10:31;;;;;;;11.60;7.03;;;;;;;15.03;80.75;99548.72;5033632;28;20088;-62
2021/08/14 00:12:57;;;;;;;11.27;6.72;;;;;;;15.01;81.02;99550.84;5033061;28;20083;-61
2021/08/14 00:15:22;;;;;;;11.32;6.65;;;;;;;15.01;81.09;99557.00;5033081;28;20084;-62
2021/08/14 00:17:48;;;;;;;8.05;6.55;;;;;;;15.02;nan;99558.59;5033062;28;20067;-62
2021/08/14 00:20:14;;;;;;;12.20;6.55;;;;;;;15.01;81.25;99554.31;5033072;28;20050;-61
2021/08/14 00:22:39;;;;;;;9.15;6.22;;;;;;;15.00;80.91;99555.41;5031633;28;20048;-61
2021/08/14 00:25:06;;;;;;;9.43;7.32;;;;;;;14.99;81.01;99557.25;5033294;28;20037;-61
2021/08/14 00:27:32;;;;;;;11.00;6.80;;;;;;;14.94;81.01;99557.25;5032783;28;20076;-62
2021/08/14 00:29:57;;;;;;;9.70;6.95;;;;;;;14.91;81.50;99562.28;5033091;28;20088;-61
2021/08/14 00:32:23;;;;;;;10.73;6.38;;;;;;;14.89;81.43;99561.75;5032725;28;20048;-61
2021/08/14 00:34:48;;;;;;;10.73;7.25;;;;;;;14.87;81.70;99567.34;5032938;28;20072;-61
2021/08/14 00:37:14;;;;;;;13.52;6.88;;;;;;;14.84;81.64;99561.72;5032353;28;20041;-62
2021/08/14 00:39:40;;;;;;;9.38;6.75;;;;;;;14.83;81.81;99578.81;5031516;28;20041;-62
2021/08/14 00:42:06;;;;;;;10.32;6.68;;;;;;;14.79;82.07;99569.72;5014828;28;20049;-62
2021/08/14 00:44:33;;;;;;;9.10;6.88;;;;;;;14.76;81.83;99574.53;5014855;28;20048;-62
2021/08/14 00:47:00;;;;;;;10.95;6.65;;;;;;;14.77;82.09;99583.31;5032706;28;20183;-61
2021/08/14 00:49:26;;;;;;;9.00;7.18;;;;;;;14.74;82.14;99573.97;5014658;28;20044;-61
2021/08/14 00:51:51;;;;;;;9.43;7.15;;;;;;;14.72;82.35;99581.41;5032377;28;20049;-62
2021/08/14 00:54:17;;;;;;;10.05;7.03;;;;;;;14.74;82.46;99586.50;5031188;28;20041;-62
2021/08/14 00:56:43;;;;;;;11.23;7.32;;;;;;;14.71;82.23;99585.16;5031285;28;20043;-62
2021/08/14 00:59:08;;;;;;;10.27;6.65;;;;;;;14.72;82.69;99588.63;5032479;28;20103;-62
2021/08/14 01:01:34;;;;;;;10.32;6.70;;;;;;;14.70;82.30;99580.06;5030984;28;20076;-62
2021/08/14 01:04:01;;;;;;;13.25;7.80;;;;;;;14.70;82.34;99578.19;5032446;28;20045;-61
2021/08/14 01:06:27;;;;;;;10.93;6.80;;;;;;;14.69;82.79;99581.94;5032287;28;20049;-60
2021/08/14 01:08:54;;;;;;;14.85;6.72;;;;;;;14.69;82.50;99581.16;5032300;28;20399;-61
2021/08/14 01:11:20;;;;;;;10.30;6.50;;;;;;;14.68;82.76;99585.69;5032063;28;20120;-60
2021/08/14 01:13:46;;;;;;;11.70;6.65;;;;;;;14.66;82.68;99587.78;5031045;28;20136;-63
2021/08/14 01:16:12;;;;;;;11.20;7.10;;;;;;;14.67;82.78;99592.06;5031932;28;20052;-62
2021/08/14 01:18:47;;;;;;;11.68;7.43;;;;;;;14.63;82.82;99590.19;5032146;28;20087;-60
2021/08/14 01:21:20;;;;;;;9.75;6.85;;;;;;;14.62;82.88;99592.06;5031970;28;20404;-61
2021/08/14 01:23:48;;;;;;;8.48;6.57;;;;;;;14.59;83.07;99581.91;5031901;28;20049;-61
2021/08/14 01:26:15;;;;;;;9.98;7.30;;;;;;;14.58;82.75;99582.94;5031769;28;20069;-61
2021/08/14 01:28:42;;;;;;;10.68;6.82;;;;;;;14.58;83.00;99590.16;5031824;28;20403;-61
2021/08/14 01:31:10;;;;;;;14.90;7.10;;;;;;;14.57;83.49;99580.56;5030506;28;20052;-61
2021/08/14 01:33:38;;;;;;;10.10;6.80;;;;;;;14.55;83.19;99580.78;5031821;28;20041;-61
2021/08/14 01:36:05;;;;;;;14.38;7.07;;;;;;;14.53;83.16;99585.59;5030461;28;20103;-62
2021/08/14 01:38:31;;;;;;;8.95;6.97;;;;;;;14.52;83.30;99587.44;5030290;28;20041;-60
2021/08/14 01:40:56;;;;;;;10.55;6.80;;;;;;;14.52;83.36;99587.44;5030676;28;20045;-61
2021/08/14 01:43:22;;;;;;;10.38;6.97;;;;;;;14.52;83.45;99589.31;5031818;28;20514;-62
2021/08/14 01:45:49;;;;;;;10.40;7.28;;;;;;;14.51;83.67;99590.34;5032051;28;20530;-63
2021/08/14 01:48:15;;;;;;;17.80;8.02;;;;;;;14.50;83.50;99586.06;5030735;28;20049;-61
2021/08/14 01:50:41;;;;;;;9.25;6.80;;;;;;;14.48;83.63;99589.00;5031285;28;20048;-60
2021/08/14 01:53:06;;;;;;;11.68;7.57;;;;;;;14.48;83.61;99589.00;5031252;28;20054;-61
2021/08/14 01:55:32;;;;;;;10.68;7.32;;;;;;;14.47;83.44;99592.75;5031909;28;20049;-61
2021/08/14 01:57:57;;;;;;;10.63;7.05;;;;;;;14.46;83.40;99585.78;5031504;28;20041;-62
2021/08/14 02:00:23;;;;;;;12.50;7.28;;;;;;;14.46;83.69;99593.00;5030182;28;20557;-61
2021/08/14 02:02:49;;;;;;;10.07;6.93;;;;;;;14.45;83.97;99584.19;5031582;28;20562;-61
2021/08/14 02:05:15;;;;;;;8.80;6.88;;;;;;;14.50;83.61;99588.72;5031218;28;20045;-61
2021/08/14 02:07:41;;;;;;;11.10;7.03;;;;;;;14.57;83.34;99591.22;5031146;28;20041;-60
2021/08/14 02:10:08;;;;;;;12.13;7.68;;;;;;;14.61;82.96;99589.63;5013809;28;20048;-60
2021/08/14 02:12:34;;;;;;;10.38;7.07;;;;;;;14.75;82.41;99591.56;5030076;28;20048;-62
2021/08/14 02:15:00;;;;;;;9.85;7.47;;;;;;;14.87;82.03;99596.69;5030126;28;20037;-62
2021/08/14 02:17:25;;;;;;;12.93;7.80;;;;;;;14.99;81.36;99597.28;5030232;28;20041;-61
2021/08/14 02:19:51;;;;;;;9.00;6.93;;;;;;;15.15;80.64;99592.81;5029769;28;20061;-60
2021/08/14 02:22:17;;;;;;;11.15;6.95;;;;;;;15.34;80.04;99598.47;5031099;28;20419;-60
2021/08/14 02:24:42;;;;;;;10.57;7.07;;;;;;;15.52;79.30;99591.03;5031385;28;20053;-61
2021/08/14 02:27:08;;;;;;;9.43;6.72;;;;;;;15.73;78.37;99591.88;5031059;28;20053;-61
2021/08/14 02:29:34;;;;;;;9.75;6.75;;;;;;;15.92;77.57;99584.16;5031219;28;20052;-60
2021/08/14 02:32:00;;;;;;;10.90;6.03;;;;;;;16.11;76.79;99594.00;5030919;28;20076;-61
2021/08/14 02:34:26;;;;;;;10.73;6.82;;;;;;;16.31;76.04;99593.19;5030932;28;20112;-60
2021/08/14 02:36:52;;;;;;;9.48;5.85;;;;;;;16.54;74.86;99591.81;5030913;28;20041;-61
2021/08/14 02:39:18;;;;;;;9.60;5.90;;;;;;;16.78;74.10;99591.25;5031122;28;20483;-61
2021/08/14 02:41:43;;;;;;;9.88;6.93;;;;;;;16.99;72.91;99595.44;5030961;28;20049;-61
2021/08/14 02:44:09;;;;;;;8.43;5.85;;;;;;;17.25;72.30;99598.00;5029743;28;20061;-61
2021/08/14 02:46:35;;;;;;;7.78;5.60;;;;;;;17.50;71.18;99602.44;5031140;28;20132;-61
2021/08/14 02:49:01;;;;;;;7.60;5.60;;;;;;;17.70;70.38;99599.59;5030823;28;20045;-61
2021/08/14 02:51:26;;;;;;;8.50;5.70;;;;;;;17.89;69.70;99605.13;5031163;28;20038;-61
2021/08/14 02:53:52;;;;;;;7.90;5.97;;;;;;;18.09;68.92;99600.69;5030876;28;20533;-61
2021/08/14 02:56:17;;;;;;;8.10;5.57;;;;;;;18.28;67.99;99608.81;5030859;28;20042;-61
2021/08/14 02:58:43;;;;;;;9.50;5.75;;;;;;;18.39;67.67;99597.72;5030709;28;20076;-61
2021/08/14 03:01:09;;;;;;;6.50;5.15;;;;;;;18.49;67.31;99607.53;5033461;28;20045;-62
2021/08/14 03:03:34;;;;;;;8.38;5.68;;;;;;;18.69;66.81;99603.03;5034267;28;20037;-61
2021/08/14 03:06:00;;;;;;;6.53;5.30;;;;;;;18.86;65.75;99603.41;5034324;28;20099;-61
2021/08/14 03:08:26;;;;;;;9.90;5.82;;;;;;;18.98;65.14;99605.69;4999946;28;20088;-60
2021/08/14 03:10:52;;;;;;;9.68;5.60;;;;;;;19.17;64.87;99613.78;5034134;28;20046;-61
2021/08/14 03:13:17;;;;;;;9.80;5.43;;;;;;;19.40;64.03;99609.44;5034010;28;20042;-61
2021/08/14 03:15:43;;;;;;;8.60;5.50;;;;;;;19.55;63.19;99611.09;5034514;28;20037;-62
2021/08/14 03:18:09;;;;;;;6.93;4.90;;;;;;;19.73;62.54;99602.25;5034267;28;20547;-61
2021/08/14 03:20:35;;;;;;;10.27;5.57;;;;;;;19.85;62.31;99605.28;5034181;28;20515;-61
2021/08/14 03:23:01;;;;;;;10.38;5.57;;;;;;;19.98;61.81;99601.06;5032688;28;20084;-61
2021/08/14 03:25:27;;;;;;;10.18;5.07;;;;;;;20.15;61.36;99606.69;5032958;28;20045;-61
2021/08/14 03:27:52;;;;;;;7.65;5.18;;;;;;;20.18;61.14;99600.72;5032521;28;20095;-60
2021/08/14 03:30:18;;;;;;;8.68;5.47;;;;;;;20.17;61.15;99607.19;5034306;28;20049;-60
2021/08/14 03:32:45;;;;;;;10.13;5.47;;;;;;;20.19;60.95;99610.38;5016131;28;20045;-61
2021/08/14 03:35:14;;;;;;;9.63;5.97;;;;;;;20.33;60.94;99615.00;5032644;28;20411;-62
2021/08/14 03:37:40;;;;;;;8.05;5.07;;;;;;;20.40;60.78;99610.81;5032495;28;20045;-60
2021/08/14 03:40:07;;;;;;;8.98;5.57;;;;;;;20.49;60.17;99610.13;5033625;28;20048;-62
2021/08/14 03:42:33;;;;;;;8.65;5.75;;;;;;;20.49;59.93;99608.25;5033620;28;20054;-60
2021/08/14 03:44:59;;;;;;;9.07;6.10;;;;;;;20.62;59.82;99617.47;5032428;28;20041;-61
2021/08/14 03:47:25;;;;;;;9.68;5.97;;;;;;;20.67;59.55;99619.25;5032359;28;20052;-60
2021/08/14 03:49:50;;;;;;;7.95;5.32;;;;;;;20.78;59.32;99612.56;5033746;28;20532;-60
2021/08/14 03:52:16;;;;;;;8.18;5.50;;;;;;;20.82;58.93;99608.19;5032174;28;20038;-60
2021/08/14 03:54:43;;;;;;;9.88;5.43;;;;;;;20.99;58.71;99618.34;5033536;28;20041;-61
2021/08/14 03:57:09;;;;;;;8.95;6.00;;;;;;;21.07;58.29;99618.44;5033388;28;20052;-61
2021/08/14 03:59:35;;;;;;;10.65;5.65;;;;;;;21.22;58.08;99622.72;5015800;28;20128;-62
2021/08/14 04:02:01;;;;;;;8.10;5.75;;;;;;;21.37;57.19;99626.22;5033348;28;20132;-62
2021/08/14 04:04:27;;;;;;;8.65;5.43;;;;;;;21.49;57.02;99627.28;5033278;28;20125;-61
2021/08/14 04:06:52;;;;;;;8.02;5.35;;;;;;;21.44;57.22;99627.41;5032888;28;20487;-61
2021/08/14 04:09:18;;;;;;;12.75;6.32;;;;;;;21.61;56.99;99632.16;5031732;28;20064;-61
2021/08/14 04:11:44;;;;;;;10.18;5.82;;;;;;;21.78;56.07;99640.38;5031787;28;20057;-61
2021/08/14 04:14:10;;;;;;;8.32;5.70;;;;;;;21.98;55.96;99643.72;5033219;28;20041;-61
2021/08/14 04:16:36;;;;;;;9.95;5.40;;;;;;;22.06;55.34;99644.84;5033029;28;20103;-61
2021/08/14 04:19:02;;;;;;;12.27;6.00;;;;;;;22.13;55.10;99634.44;5032644;28;20041;-61
2021/08/14 04:21:28;;;;;;;9.07;5.70;;;;;;;22.20;55.32;99642.91;5032927;28;20124;-59
2021/08/14 04:23:53;;;;;;;7.68;5.38;;;;;;;22.30;54.98;99642.69;5032918;28;20495;-60
2021/08/14 04:26:19;;;;;;;11.55;5.82;;;;;;;22.40;54.36;99642.41;5032808;28;20041;-60
2021/08/14 04:28:45;;;;;;;9.50;5.78;;;;;;;22.51;54.31;99651.06;5032844;28;20045;-61
2021/08/14 04:31:10;;;;;;;10.88;5.68;;;;;;;22.48;54.91;99651.66;5032952;28;20049;-62
2021/08/14 04:33:36;;;;;;;10.85;5.50;;;;;;;22.53;54.81;99650.72;5032929;28;20402;-60
2021/08/14 04:36:02;;;;;;;8.55;5.30;;;;;;;22.53;54.88;99650.72;5032555;28;20041;-61
2021/08/14 04:38:28;;;;;;;8.52;5.53;;;;;;;22.63;54.17;99653.97;5031533;28;20107;-64
2021/08/14 04:40:54;;;;;;;11.40;5.78;;;;;;;22.77;54.06;99659.28;5032588;28;20045;-62
2021/08/14 04:43:20;;;;;;;8.20;5.80;;;;;;;22.89;53.78;99661.41;5031215;28;20128;-61
2021/08/14 04:45:45;;;;;;;8.32;5.40;;;;;;;22.91;53.76;99667.25;5031447;28;20038;-62
2021/08/14 04:48:11;;;;;;;7.88;6.18;;;;;;;22.87;53.71;99666.31;5032526;28;20073;-61
2021/08/14 04:50:37;;;;;;;8.07;5.25;;;;;;;22.69;54.67;99660.03;5031452;28;20041;-60
2021/08/14 04:53:03;;;;;;;8.25;5.35;;;;;;;22.49;54.65;99669.47;5014764;28;20045;-60
2021/08/14 04:55:28;;;;;;;7.72;5.65;;;;;;;22.32;55.23;99667.44;5032702;28;20042;-61
2021/08/14 04:57:54;;;;;;;7.35;5.55;;;;;;;22.22;55.83;99667.72;5032225;28;20060;-61
2021/08/14 05:00:20;;;;;;;10.13;5.93;;;;;;;22.09;56.09;99669.34;5030913;28;20038;-61
2021/08/14 05:02:45;;;;;;;8.00;5.20;;;;;;;22.05;56.65;99665.66;5030569;28;20038;-60
2021/08/14 05:05:11;;;;;;;7.82;5.65;;;;;;;22.02;56.63;99660.09;5030709;28;20073;-60
2021/08/14 05:07:37;;;;;;;9.85;5.50;;;;;;;21.93;57.12;99668.13;5030725;28;20140;-59
2021/08/14 05:10:03;;;;;;;7.35;5.22;;;;;;;21.77;57.05;99660.38;5030899;28;20044;-60
2021/08/14 05:12:30;;;;;;;8.95;5.65;;;;;;;21.63;57.84;99666.91;5031872;28;20139;-60
2021/08/14 05:14:56;;;;;;;6.30;4.88;;;;;;;21.57;57.59;99671.63;5031759;28;20044;-60
2021/08/14 05:17:21;;;;;;;7.40;5.50;;;;;;;21.53;58.27;99666.03;5030541;28;20046;-59
2021/08/14 05:19:47;;;;;;;10.48;5.60;;;;;;;21.50;58.87;99666.66;5030611;28;20881;-60
2021/08/14 05:22:13;;;;;;;7.80;5.30;;;;;;;21.41;58.47;99654.16;5031737;28;20395;-61
2021/08/14 05:24:39;;;;;;;9.80;5.55;;;;;;;21.38;59.26;99655.56;5013999;28;20056;-62
2021/08/14 05:27:05;;;;;;;6.97;4.90;;;;;;;21.36;59.01;99662.34;5031839;28;20403;-61
2021/08/14 05:29:30;;;;;;;10.77;5.72;;;;;;;21.29;59.66;99660.03;5030636;28;20048;-61
2021/08/14 05:31:56;;;;;;;7.55;5.72;;;;;;;21.26;59.94;99660.66;5031850;28;20037;-59
2021/08/14 05:34:22;;;;;;;10.35;5.88;;;;;;;21.22;59.74;99663.16;5031865;28;20479;-59
2021/08/14 05:36:48;;;;;;;8.73;4.90;;;;;;;21.18;59.61;99656.78;5031393;28;20041;-59
2021/08/14 05:39:13;;;;;;;8.77;5.43;;;;;;;21.13;60.20;99656.88;5013717;28;20345;-59
2021/08/14 05:41:41;;;;;;;7.22;4.93;;;;;;;21.12;60.50;99651.78;5031399;28;20057;-60
2021/08/14 05:44:07;;;;;;;8.55;5.25;;;;;;;21.13;60.33;99653.38;5030112;28;20067;-59
2021/08/14 05:46:33;;;;;;;7.47;5.45;;;;;;;21.16;60.07;99658.19;5031259;28;20041;-60
2021/08/14 05:48:59;;;;;;;9.27;5.60;;;;;;;21.20;60.57;99662.66;5031596;28;20107;-59
2021/08/14 05:51:25;;;;;;;7.57;5.25;;;;;;;21.23;60.53;99662.06;5031576;28;20049;-60
2021/08/14 05:53:51;;;;;;;10.68;5.40;;;;;;;21.27;61.28;99649.59;5031179;28;20537;-60
2021/08/14 05:56:16;;;;;;;6.57;5.15;;;;;;;21.25;59.88;99651.78;5031188;28;20041;-60
2021/08/14 05:58:42;;;;;;;6.55;4.45;;;;;;;21.23;60.17;99653.97;5031170;28;20045;-60
2021/08/14 06:01:08;;;;;;;12.00;5.03;;;;;;;21.26;60.36;99652.56;5029947;28;20099;-60
2021/08/14 06:03:35;;;;;;;8.32;5.03;;;;;;;21.31;60.27;99655.16;5031168;28;20073;-59
2021/08/14 06:06:03;;;;;;;6.13;4.68;;;;;;;21.33;60.54;99656.47;5031430;28;20045;-59
2021/08/14 06:08:28;;;;;;;11.82;6.03;;;;;;;21.35;61.03;99655.34;5031274;28;20111;-61
2021/08/14 06:10:54;;;;;;;7.93;5.32;;;;;;;21.36;61.41;99655.09;5031124;28;20415;-60
2021/08/14 06:13:20;;;;;;;8.82;5.30;;;;;;;21.40;60.27;99653.38;5031024;28;20060;-59
2021/08/14 06:15:45;;;;;;;7.13;5.00;;;;;;;21.39;60.60;99654.50;5031588;28;20106;-60
2021/08/14 06:18:11;;;;;;;9.82;5.60;;;;;;;21.42;60.80;99656.56;5031023;28;20057;-60
2021/08/14 06:20:37;;;;;;;7.25;4.82;;;;;;;21.49;60.84;99648.84;5033750;28;20058;-59
2021/08/14 06:23:03;;;;;;;7.95;4.97;;;;;;;21.58;60.46;99650.84;5050841;28;20052;-59
2021/08/14 06:25:30;;;;;;;6.78;4.80;;;;;;;21.60;60.15;99652.13;5051288;28;20052;-60
2021/08/14 06:27:55;;;;;;;8.00;5.10;;;;;;;21.64;60.24;99655.81;5050649;28;20422;-59
2021/08/14 06:30:21;;;;;;;8.48;5.10;;;;;;;21.69;60.46;99657.59;5051316;28;20048;-59
2021/08/14 06:32:47;;;;;;;6.43;4.85;;;;;;;21.66;60.58;99661.72;5051019;28;20049;-59
2021/08/14 06:35:13;;;;;;;7.03;4.63;;;;;;;21.70;60.06;99651.09;5050940;28;20102;-59
2021/08/14 06:37:44;;;;;;;6.15;4.50;;;;;;;21.71;60.37;99661.59;5054803;28;20133;-59
2021/08/14 06:40:11;;;;;;;8.77;5.03;;;;;;;21.77;60.56;99656.88;5053543;28;20072;-58
2021/08/14 06:42:38;;;;;;;7.97;4.53;;;;;;;21.82;60.01;99653.25;5054648;28;20045;-59
2021/08/14 06:45:04;;;;;;;6.20;4.70;;;;;;;21.87;60.67;99656.63;5054838;28;20040;-59
2021/08/14 06:47:30;;;;;;;10.43;5.07;;;;;;;21.90;59.75;99650.63;5054534;28;20101;-59
2021/08/14 06:49:56;;;;;;;6.43;4.72;;;;;;;21.91;58.97;99651.41;5054792;28;20033;-59
2021/08/14 06:52:21;;;;;;;6.82;4.13;;;;;;;21.93;58.92;99650.00;5054704;28;20040;-60
2021/08/14 06:54:47;;;;;;;6.28;4.45;;;;;;;21.95;58.87;99655.13;5054498;28;20127;-60
2021/08/14 06:57:13;;;;;;;8.75;4.30;;;;;;;22.02;59.03;99652.78;5053980;28;20076;-59
2021/08/14 06:59:38;;;;;;;6.75;4.53;;;;;;;22.09;59.37;99645.06;5054320;28;20041;-60
2021/08/14 07:02:04;;;;;;;7.45;4.72;;;;;;;22.20;59.33;99654.50;5054359;28;20075;-59
2021/08/14 07:04:30;;;;;;;6.25;5.03;;;;;;;22.24;58.22;99657.41;5049377;28;20127;-59
2021/08/14 07:06:56;;;;;;;6.82;5.00;;;;;;;22.27;57.94;99648.69;5052572;28;20053;-60
2021/08/14 07:09:22;;;;;;;5.95;4.22;;;;;;;22.36;56.92;99651.44;5054055;28;20045;-60
2021/08/14 07:11:47;;;;;;;6.40;4.10;;;;;;;22.41;56.63;99657.53;5044090;28;20059;-59
2021/08/14 07:14:13;;;;;;;7.57;4.20;;;;;;;22.47;55.25;99649.25;5043593;28;20650;-57
2021/08/14 07:16:39;;;;;;;11.18;4.68;;;;;;;22.69;55.52;99654.63;5042975;28;20502;-57
2021/08/14 07:19:05;;;;;;;5.80;3.78;;;;;;;22.76;53.34;99649.56;5028838;28;20098;-60
2021/08/14 07:21:30;;;;;;;7.55;4.35;;;;;;;22.92;52.58;99657.28;5038563;28;20514;-57
2021/08/14 07:23:56;;;;;;;11.75;4.13;;;;;;;22.95;53.72;99657.47;5033584;28;20554;-59
2021/08/14 07:26:23;;;;;;;5.50;4.13;;;;;;;23.07;52.84;99654.16;5033586;28;20049;-57
2021/08/14 07:28:49;;;;;;;10.02;4.57;;;;;;;23.18;51.88;99650.06;5032161;28;20056;-59
2021/08/14 07:31:15;;;;;;;8.20;4.03;;;;;;;23.41;51.60;99658.81;5015860;28;20046;-61
2021/08/14 07:33:41;;;;;;;7.70;4.10;;;;;;;23.58;50.34;99655.34;5033059;28;20503;-60
2021/08/14 07:36:08;;;;;;;6.50;3.78;;;;;;;23.45;50.93;99657.09;5032166;28;20200;-62
2021/08/14 07:38:34;;;;;;;5.05;4.18;;;;;;;23.41;50.08;99655.34;5033492;28;20087;-59
2021/08/14 07:41:00;;;;;;;5.80;4.18;;;;;;;23.30;50.30;99657.56;5033610;28;20518;-60
2021/08/14 07:43:26;;;;;;;5.90;4.00;;;;;;;23.44;49.80;99649.28;5033162;28;20080;-61
2021/08/14 07:45:52;;;;;;;5.05;3.72;;;;;;;23.71;49.99;99667.97;5031717;28;20046;-63
2021/08/14 07:48:17;;;;;;;5.93;4.32;;;;;;;23.75;49.40;99649.97;5032230;28;20037;-61
2021/08/14 07:50:43;;;;;;;5.25;3.42;;;;;;;23.70;49.01;99662.88;5033655;28;20072;-59
2021/08/14 07:53:09;;;;;;;8.68;4.32;;;;;;;23.78;48.44;99659.38;5032045;28;20128;-62
2021/08/14 07:55:35;;;;;;;6.60;4.07;;;;;;;23.91;48.26;99660.31;5032263;28;20041;-60
2021/08/14 07:58:01;;;;;;;6.13;3.50;;;;;;;23.99;48.40;99660.31;5033127;28;20107;-62
2021/08/14 08:00:27;;;;;;;5.45;4.35;;;;;;;24.12;47.93;99657.75;5033398;28;20068;-60
2021/08/14 08:02:53;;;;;;;4.97;3.80;;;;;;;24.17;47.23;99661.09;5032526;28;20081;-62
2021/08/14 08:05:20;;;;;;;4.72;3.72;;;;;;;24.22;47.32;99652.78;5036503;28;20052;-61
2021/08/14 08:07:46;;;;;;;6.72;4.10;;;;;;;24.27;47.21;99662.69;5048630;28;20055;-61
2021/08/14 08:10:14;;;;;;;7.65;3.80;;;;;;;24.25;47.89;99649.44;5049031;28;20102;-62
2021/08/14 08:12:41;;;;;;;5.60;3.70;;;;;;;24.41;47.15;99667.88;5049611;28;20430;-60
2021/08/14 08:15:08;;;;;;;5.93;3.80;;;;;;;24.39;46.38;99654.69;5052398;28;20056;-60
2021/08/14 08:17:35;;;;;;;4.68;3.50;;;;;;;24.45;46.89;99664.25;5052249;28;20064;-61
2021/08/14 08:20:02;;;;;;;7.28;3.63;;;;;;;24.52;46.22;99661.03;5052576;28;20056;-62
2021/08/14 08:22:28;;;;;;;5.00;3.38;;;;;;;24.56;46.53;99662.00;5052712;28;20051;-60
2021/08/14 08:24:55;;;;;;;8.50;4.18;;;;;;;24.45;45.07;99653.41;5052424;28;20057;-62
2021/08/14 08:27:22;;;;;;;5.20;3.58;;;;;;;24.33;44.43;99660.59;5052197;28;20045;-61
2021/08/14 08:29:48;;;;;;;6.55;3.40;;;;;;;24.13;44.66;99659.34;5052329;28;20068;-60
2021/08/14 08:32:14;;;;;;;4.68;3.20;;;;;;;24.00;45.09;99661.09;5050673;28;20482;-62
2021/08/14 08:34:45;;;;;;;5.22;3.55;;;;;;;23.89;44.97;99663.34;5050480;28;20046;-60
2021/08/14 08:37:15;;;;;;;5.35;3.60;;;;;;;23.68;45.17;99665.06;5002139;28;20072;-60
2021/08/14 08:39:41;;;;;;;5.45;3.40;;;;;;;23.43;46.01;99656.63;5052194;28;20063;-61
2021/08/14 08:42:07;;;;;;;4.50;3.58;;;;;;;23.32;46.15;99658.03;5051738;28;20498;-62
2021/08/14 08:44:34;;;;;;;5.13;3.90;;;;;;;23.33;46.64;99655.00;5052027;28;20486;-60
2021/08/14 08:47:00;;;;;;;6.40;3.72;;;;;;;23.40;46.93;99657.25;5051118;28;20048;-60
2021/08/14 08:49:26;;;;;;;9.57;3.85;;;;;;;23.32;46.46;99663.44;5033364;28;20068;-61
2021/08/14 08:51:53;;;;;;;4.35;3.15;;;;;;;23.12;46.83;99662.13;5050455;28;20044;-59
2021/08/14 08:54:19;;;;;;;4.35;3.70;;;;;;;22.99;47.61;99658.41;5051563;28;20049;-61
2021/08/14 08:56:46;;;;;;;7.40;4.05;;;;;;;23.03;47.73;99659.41;5051655;28;20090;-60
2021/08/14 08:59:13;;;;;;;7.30;4.18;;;;;;;23.21;47.69;99656.75;5049960;28;20106;-61
2021/08/14 09:01:39;;;;;;;5.78;3.47;;;;;;;23.34;47.79;99643.06;5051396;28;20449;-62
2021/08/14 09:04:28;;;;;;;4.60;3.83;;;;;;;23.38;48.77;99650.56;5051760;28;20133;-62
2021/08/14 09:06:55;;;;;;;6.45;3.97;;;;;;;23.25;48.50;99650.38;5051385;28;20799;-61
2021/08/14 09:09:31;;;;;;;5.13;4.13;;;;;;;23.36;47.97;99648.19;5051708;28;20482;-62
2021/08/14 09:12:03;;;;;;;7.28;3.92;;;;;;;23.46;48.39;99645.16;5051595;28;20048;-63
2021/08/14 09:14:31;;;;;;;6.35;4.05;;;;;;;23.62;49.06;99647.38;5051978;28;20049;-59
2021/08/14 09:17:07;;;;;;;5.63;3.67;;;;;;;23.65;48.10;99644.06;5049664;28;20103;-61
2021/08/14 09:19:33;;;;;;;5.80;4.05;;;;;;;23.72;47.66;99642.50;5051497;28;20052;-62
2021/08/14 09:22:14;;;;;;;5.55;3.85;;;;;;;23.69;47.62;99647.72;5049933;28;20052;-62
2021/08/14 09:24:40;;;;;;;4.47;3.50;;;;;;;23.66;45.17;99646.44;5051910;28;20039;-62
2021/08/14 09:27:07;;;;;;;8.68;3.95;;;;;;;23.55;44.29;99648.66;5051299;28;20498;-62
2021/08/14 09:29:35;;;;;;;5.90;4.05;;;;;;;23.44;43.70;99636.59;5051429;28;20044;-62
2021/08/14 09:32:03;;;;;;;5.60;3.67;;;;;;;23.34;43.93;99639.56;5050949;28;20591;-62
2021/08/14 09:34:29;;;;;;;6.15;3.60;;;;;;;23.24;43.91;99640.69;5033822;28;20041;-61
2021/08/14 09:37:05;;;;;;;6.95;3.42;;;;;;;23.17;44.80;99637.63;5051403;28;20059;-63
2021/08/14 09:39:33;;;;;;;14.80;3.85;;;;;;;23.13;45.20;99637.47;5051414;28;20045;-62
2021/08/14 09:42:08;;;;;;;4.07;3.47;;;;;;;23.17;45.18;99637.63;5049666;28;20049;-63
2021/08/14 09:44:36;;;;;;;3.95;3.47;;;;;;;23.30;45.43;99636.72;5050945;28;20045;-62
2021/08/14 09:47:08;;;;;;;5.63;3.70;;;;;;;23.34;46.28;99637.66;5050971;28;20048;-63
2021/08/14 09:49:54;;;;;;;9.32;3.83;;;;;;;23.35;46.07;99633.03;5051077;28;20460;-63
2021/08/14 09:52:22;;;;;;;4.82;3.22;;;;;;;23.34;45.74;99636.88;5050875;28;20140;-64
2021/08/14 09:54:48;;;;;;;8.13;4.15;;;;;;;23.37;44.97;99633.53;5051009;28;20525;-65
2021/08/14 09:57:18;;;;;;;7.10;3.80;;;;;;;23.36;44.80;99629.25;5049417;28;20065;-64
2021/08/14 09:59:48;;;;;;;8.13;3.78;;;;;;;23.42;42.92;99633.38;5050887;28;20041;-63
2021/08/14 10:02:19;;;;;;;;;;;;;;;23.52;43.36;99632.28;5049326;28;20080;-64
2021/08/14 10:04:46;;;;;;;7.57;3.47;;;;;;;23.48;43.01;99634.03;5051041;28;19920;-64
2021/08/14 10:07:14;;;;;;;6.50;3.75;;;;;;;23.46;43.79;99636.25;5049589;28;20052;-64
2021/08/14 10:09:42;;;;;;;6.22;3.67;;;;;;;23.42;45.17;99625.28;5050233;28;20052;-62
2021/08/14 10:12:10;;;;;;;6.40;3.75;;;;;;;23.46;45.77;99630.84;5055175;28;20049;-63
2021/08/14 10:14:38;;;;;;;6.20;3.40;;;;;;;23.54;45.85;99630.06;5037214;28;20494;-61
2021/08/14 10:17:06;;;;;;;7.32;4.13;;;;;;;23.64;45.96;99621.59;5036329;28;20533;-63
2021/08/14 10:19:32;;;;;;;6.40;3.47;;;;;;;23.78;44.87;99626.91;5053472;28;20037;-64
2021/08/14 10:21:58;;;;;;;5.68;3.75;;;;;;;23.92;44.37;99630.22;5036764;28;20415;-64
2021/08/14 10:24:24;;;;;;;6.03;4.07;;;;;;;24.02;44.00;99615.56;5055075;28;20037;-62
2021/08/14 10:27:09;;;;;;;6.65;4.00;;;;;;;24.03;41.54;99614.44;5053337;28;20056;-62
2021/08/14 10:29:45;;;;;;;4.80;3.90;;;;;;;23.92;42.16;99624.81;5054585;28;20040;-63
2021/08/14 10:32:11;;;;;;;5.43;3.60;;;;;;;23.98;41.35;99625.44;5054112;28;20181;-62
2021/08/14 10:34:37;;;;;;;4.97;3.40;;;;;;;24.06;40.97;99611.09;5054804;28;20526;-63
2021/08/14 10:37:34;;;;;;;5.93;3.70;;;;;;;24.13;40.73;99613.31;5054757;28;20494;-62
2021/08/14 10:39:59;;;;;;;6.85;4.15;;;;;;;24.28;40.36;99614.72;5054695;28;20490;-60
2021/08/14 10:42:47;;;;;;;6.15;3.42;;;;;;;24.49;40.90;99604.78;5054724;28;20099;-62
2021/08/14 10:45:16;;;;;;;7.40;4.38;;;;;;;24.59;40.99;99601.72;5054162;28;20044;-62
2021/08/14 10:47:44;;;;;;;4.63;3.53;;;;;;;24.70;40.92;99599.44;5054174;28;20057;-60
2021/08/14 10:50:32;;;;;;;4.82;3.70;;;;;;;24.81;40.07;99599.88;5054382;28;20037;-61
2021/08/14 10:53:13;;;;;;;4.63;3.78;;;;;;;24.82;39.78;99591.38;5054320;28;20132;-62
2021/08/14 10:55:43;;;;;;;5.55;3.67;;;;;;;25.01;39.37;99592.91;5054703;28;20446;-62
2021/08/14 10:58:23;;;;;;;4.22;3.50;;;;;;;25.16;38.23;99595.06;5054758;28;20055;-63
2021/08/14 11:00:54;;;;;;;6.82;3.75;;;;;;;25.22;38.59;99593.72;5053703;28;20652;-62
2021/08/14 11:03:31;;;;;;;6.70;3.80;;;;;;;25.28;39.26;99589.69;5054116;28;20528;-62
2021/08/14 11:06:29;;;;;;;4.82;3.47;;;;;;;25.23;39.22;99586.38;5053945;28;20147;-62
2021/08/14 11:09:31;;;;;;;5.80;3.75;;;;;;;25.17;38.94;99579.56;5053946;28;20041;-63
2021/08/14 11:11:59;;;;;;;10.02;4.28;;;;;;;25.17;39.74;99582.28;5054016;28;20056;-63
2021/08/14 11:14:43;;;;;;;5.30;3.60;;;;;;;25.17;40.18;99572.22;5052668;28;20064;-61
2021/08/14 11:17:10;;;;;;;5.75;3.90;;;;;;;25.21;39.75;99575.06;5053624;28;20048;-62
2021/08/14 11:19:50;;;;;;;6.05;4.05;;;;;;;25.25;40.70;99576.00;5052414;28;20044;-65
2021/08/14 11:22:41;;;;;;;6.65;3.65;;;;;;;25.35;40.29;99578.31;5034917;28;20454;-67
2021/08/14 11:25:28;;;;;;;5.85;3.97;;;;;;;25.32;41.20;99568.91;5053929;28;20041;-62
2021/08/14 11:27:58;;;;;;;12.68;5.10;;;;;;;25.30;40.75;99567.69;5036031;28;20059;-63
2021/08/14 11:30:26;;;;;;;;;;;;;;;25.17;40.87;99571.44;5035615;28;20677;-63
2021/08/14 11:32:53;;;;;;;6.85;3.63;;;;;;;25.06;41.63;99571.00;5052243;28;19929;-63